Farmville, VA

2:54 PM EST on January 27, 2015 (GMT -0500)
Hampden-Sydney College | Change Station
CLOSE
Current Station
Personal Weather Station
Location: Hampden-Sydney, VA
Elevation: 510 ft
Nearby Weather Stations

Elev 510 ft 37.24 °N, 78.46 °W | Updated 3 seconds ago

Overcast
Overcast
39.3 °F
Feels Like 37 °F
N
4.0
Wind Variable Wind from NNE
Gusts 8.0 mph

Today
High -- | Low -- °F
--% Chance of Precip.
Yesterday
High -- | Low -- °F
Precip. -- in
7:20 AM 5:32 PM
First Quarter, 57% visible
Pressure 29.78 in
Visibility 10.0 miles
Clouds Mostly Cloudy 8000 ft
Overcast 9500 ft
Windchill 37 °F
Dew Point 24 °F
Humidity 53%
Rainfall 0.00 in
Snow Depth Not available.
UV 0.9 out of 12
Pollen .30 out of 12
Air Quality Not available.
Flu Activity Not available.
METAR KFVX 271935Z AUTO 04007KT 10SM BKN080 OVC095 06/M04 A2978 RMK AO2 T00581044

More Conditions Fewer Conditions

Pressure 29.78 in
Visibility 10.0 miles
Clouds Mostly Cloudy 8000 ft
Overcast 9500 ft
Windchill 37 °F
Dew Point 24 °F
Humidity 53%
Rainfall 0.00 in
Snow Depth Not available.
UV 0.9 out of 12
Pollen .30 out of 12
Air Quality Not available.
Flu Activity Not available.
METAR KFVX 271935Z AUTO 04007KT 10SM BKN080 OVC095 06/M04 A2978 RMK AO2 T00581044

More Conditions Fewer Conditions

10-Day Weather Forecast

Almanac

Astronomy

Jan. 27, 2015 Rise Set
Actual Time
Civil Twilight
Nautical Twilight
Astronomical Twilight
Moon
Length of Visible Light
Length of Day
Tomorrow will be .
, % of the Moon is Illuminated

Today's Extremes

State Highs State Lows

Community

WunderPhotos

Upload Photos

1,790,837 photos uploaded!

WunderBlogs® & News

Nearby

Air Quality

  Air Quality AQ Index Pollutant
Not available.

Snow Depth

Station Depth Elevation

Earthquake Activity

City Distance Mag. Time & Date
Minimum magnitude displayed is 2.5.

Coastal Water Temperatures

Place Temperature

Nearby Weather Stations